Time;durP1;ratioP1;P1;durP2;ratioP2;P2;SDS_P1;SDS_P2;PMS_P1;PMS_P2;Temp;Humidity;BMP_temperature;BMP_pressure;BME280_temperature;BME280_humidity;BME280_pressure;Samples;Min_cycle;Max_cycle;Signal;HPM_P1;HPM_P2
2023/06/23 04:15:45;;;;;;;18.02;11.18;;;16.60;99.90;;;;;;5031372;28;20045;-86
2023/06/23 04:18:13;;;;;;;14.70;11.52;;;16.70;99.90;;;;;;5015553;28;20053;-85
2023/06/23 04:20:40;;;;;;;19.08;12.65;;;16.70;99.90;;;;;;4998333;28;20044;-85
2023/06/23 04:23:07;;;;;;;17.55;12.18;;;16.80;99.90;;;;;;5015048;28;20044;-86
2023/06/23 04:25:33;;;;;;;20.60;11.98;;;16.80;99.90;;;;;;5032239;28;20057;-87
2023/06/23 04:28:03;;;;;;;17.48;12.38;;;16.80;99.90;;;;;;4997825;28;20091;-85
2023/06/23 04:30:31;;;;;;;20.88;12.95;;;16.90;99.90;;;;;;5014167;28;20132;-85
2023/06/23 04:32:58;;;;;;;18.75;12.68;;;17.00;99.90;;;;;;4998325;28;20056;-84
2023/06/23 04:35:23;;;;;;;17.20;13.43;;;17.00;99.90;;;;;;5014873;28;20029;-85
2023/06/23 04:38:12;;;;;;;17.65;12.60;;;17.10;99.90;;;;;;4997902;28;20175;-86
2023/06/23 04:40:51;;;;;;;25.25;12.85;;;17.10;99.90;;;;;;5014521;28;20037;-87
2023/06/23 04:43:36;;;;;;;16.63;11.70;;;17.10;99.90;;;;;;5015166;28;20550;-84
2023/06/23 04:46:15;;;;;;;16.45;14.35;;;17.20;99.90;;;;;;5013525;28;20096;-85
2023/06/23 04:49:08;;;;;;;19.38;14.07;;;17.20;99.90;;;;;;5014497;28;20111;-85
2023/06/23 04:51:39;;;;;;;17.98;12.40;;;17.20;99.90;;;;;;5013922;28;20037;-84
2023/06/23 04:54:11;;;;;;;21.13;13.57;;;17.30;99.90;;;;;;5013457;28;20053;-85
2023/06/23 04:56:40;;;;;;;18.05;13.93;;;17.30;99.90;;;;;;5013600;28;20042;-84
2023/06/23 04:59:09;;;;;;;17.15;14.05;;;17.30;99.90;;;;;;5014126;28;20531;-85
2023/06/23 05:01:36;;;;;;;17.70;13.35;;;17.30;99.90;;;;;;5014987;28;20155;-84
2023/06/23 05:04:04;;;;;;;16.85;13.45;;;17.40;99.90;;;;;;5013768;28;20041;-84
2023/06/23 05:06:31;;;;;;;19.13;13.82;;;17.40;99.90;;;;;;5012304;28;20176;-84
2023/06/23 05:08:58;;;;;;;18.90;14.48;;;17.40;99.90;;;;;;5011040;28;20041;-85
2023/06/23 05:11:26;;;;;;;18.60;15.40;;;17.40;99.90;;;;;;5011316;28;20033;-84
2023/06/23 05:13:52;;;;;;;17.77;14.95;;;17.50;99.90;;;;;;5028158;28;20054;-85
2023/06/23 05:16:18;;;;;;;21.30;17.35;;;17.50;99.90;;;;;;4994864;28;20065;-85
2023/06/23 05:18:46;;;;;;;17.27;14.45;;;17.70;99.90;;;;;;5011114;28;20037;-85
2023/06/23 05:21:16;;;;;;;16.45;14.40;;;17.70;99.90;;;;;;4994770;28;20072;-84
2023/06/23 05:23:44;;;;;;;22.85;15.93;;;17.80;99.90;;;;;;5010946;28;20077;-85
2023/06/23 05:26:13;;;;;;;20.15;18.13;;;17.90;99.90;;;;;;5009988;28;20611;-86
2023/06/23 05:28:41;;;;;;;20.42;17.90;;;17.90;99.90;;;;;;4991859;28;20412;-84
2023/06/23 05:31:08;;;;;;;21.00;18.98;;;18.00;99.90;;;;;;4992901;28;20096;-95
2023/06/23 05:33:37;;;;;;;19.75;14.60;;;18.00;99.90;;;;;;4992760;28;20099;-91
2023/06/23 05:36:07;;;;;;;22.10;16.48;;;18.10;99.90;;;;;;4996526;28;20049;-95
2023/06/23 05:38:36;;;;;;;20.95;18.88;;;18.10;99.90;;;;;;4996645;28;20070;-93
2023/06/23 05:41:02;;;;;;;21.02;18.17;;;18.20;99.90;;;;;;4996113;28;20080;-94
2023/06/23 05:43:27;;;;;;;22.42;16.73;;;18.40;99.90;;;;;;5011427;28;20115;-94
2023/06/23 05:45:55;;;;;;;18.55;14.82;;;18.30;99.90;;;;;;4996108;28;20457;-90
2023/06/23 05:48:36;;;;;;;18.25;15.98;;;18.30;99.90;;;;;;5012218;28;20061;-93
2023/06/23 05:51:06;;;;;;;20.05;16.42;;;18.30;99.90;;;;;;5012231;28;20099;-90
2023/06/23 05:53:35;;;;;;;16.90;14.80;;;18.50;99.90;;;;;;5012242;28;20117;-90
2023/06/23 05:56:16;;;;;;;19.92;15.75;;;18.50;99.90;;;;;;5014656;28;20456;-92
2023/06/23 05:58:46;;;;;;;17.80;14.35;;;18.70;99.90;;;;;;4998803;28;20041;-88
2023/06/23 06:01:19;;;;;;;18.58;13.02;;;18.80;99.90;;;;;;5015309;28;20300;-89
2023/06/23 06:03:49;;;;;;;15.50;13.20;;;18.90;99.90;;;;;;5015585;28;20065;-88
2023/06/23 06:06:16;;;;;;;16.98;12.50;;;18.90;99.90;;;;;;4998953;28;20132;-87
2023/06/23 06:08:44;;;;;;;17.13;11.68;;;18.90;99.90;;;;;;5005269;28;20081;-87
2023/06/23 06:11:11;;;;;;;14.07;11.57;;;18.90;99.90;;;;;;5014922;28;20080;-89
2023/06/23 06:13:43;;;;;;;15.45;11.43;;;19.10;99.90;;;;;;5014955;28;20037;-90
2023/06/23 06:16:10;;;;;;;13.52;10.63;;;19.60;99.90;;;;;;5033121;28;20107;-90
2023/06/23 06:18:38;;;;;;;14.27;10.32;;;20.00;99.90;;;;;;4999380;28;20045;-90
2023/06/23 06:21:07;;;;;;;18.65;10.90;;;20.80;99.90;;;;;;5016089;28;20045;-91
2023/06/23 06:23:37;;;;;;;16.38;9.95;;;21.90;99.90;;;;;;4999783;28;20045;-90
2023/06/23 06:26:05;;;;;;;13.52;10.20;;;22.70;99.90;;;;;;5015561;28;20037;-83
2023/06/23 06:28:32;;;;;;;13.65;10.60;;;23.00;99.90;;;;;;5013723;28;20054;-85
2023/06/23 06:30:59;;;;;;;12.55;9.68;;;23.80;99.90;;;;;;4998087;28;20041;-90
2023/06/23 06:33:26;;;;;;;11.40;10.20;;;25.10;99.90;;;;;;4999070;28;20034;-89
2023/06/23 06:35:55;;;;;;;12.85;11.50;;;25.90;99.90;;;;;;5015375;28;20045;-91
2023/06/23 06:38:22;;;;;;;15.93;13.88;;;26.80;99.90;;;;;;4998784;28;20492;-89
2023/06/23 06:40:51;;;;;;;38.97;36.15;;;27.60;99.90;;;;;;5014986;28;20479;-90
2023/06/23 06:43:17;;;;;;;128.40;120.45;;;27.90;99.90;;;;;;4998586;28;20052;-91
2023/06/23 06:45:44;;;;;;;207.82;194.93;;;28.40;99.90;;;;;;5014863;28;20041;-86
2023/06/23 06:48:10;;;;;;;348.48;326.67;;;28.80;99.90;;;;;;5013243;28;20096;-87
2023/06/23 06:50:37;;;;;;;444.48;415.35;;;29.40;99.90;;;;;;5031550;28;20635;-89
2023/06/23 06:53:03;;;;;;;837.10;764.08;;;29.90;99.90;;;;;;5014856;28;20116;-89
2023/06/23 06:55:29;;;;;;;1178.45;988.97;;;30.30;99.40;;;;;;4998799;28;20068;-88
2023/06/23 06:57:56;;;;;;;1586.53;999.90;;;30.20;99.50;;;;;;5015945;28;20041;-91
2023/06/23 07:00:23;;;;;;;1912.60;999.90;;;30.50;99.30;;;;;;4999110;28;20049;-85
2023/06/23 07:02:50;;;;;;;1999.90;999.90;;;30.50;99.40;;;;;;4997936;28;20488;-87
2023/06/23 07:05:20;;;;;;;1999.90;999.90;;;30.50;99.80;;;;;;5013984;28;20077;-88
2023/06/23 07:07:46;;;;;;;1999.90;999.90;;;30.40;97.90;;;;;;5030993;28;20030;-88
2023/06/23 07:10:12;;;;;;;1999.90;999.90;;;30.60;99.90;;;;;;4997413;28;20037;-87
2023/06/23 07:12:37;;;;;;;1999.90;999.90;;;30.80;97.60;;;;;;4997507;28;20049;-88
2023/06/23 07:15:03;;;;;;;1999.90;999.90;;;30.90;98.40;;;;;;5010583;28;20054;-87
2023/06/23 07:17:29;;;;;;;1999.90;999.90;;;31.10;98.40;;;;;;5010532;28;20037;-88
2023/06/23 07:19:55;;;;;;;1999.90;999.90;;;31.10;97.30;;;;;;5008968;28;20048;-89
2023/06/23 07:22:21;;;;;;;1999.90;999.90;;;31.20;97.20;;;;;;5008803;28;20474;-90
2023/06/23 07:24:46;;;;;;;1999.90;999.90;;;31.40;95.70;;;;;;5010937;28;20134;-88
2023/06/23 07:27:14;;;;;;;1999.90;999.90;;;31.40;96.10;;;;;;5010632;28;20046;-87
2023/06/23 07:29:40;;;;;;;1999.90;999.90;;;31.40;97.20;;;;;;5010264;28;20053;-87
2023/06/23 07:32:07;;;;;;;1999.90;999.90;;;31.40;96.60;;;;;;5009241;28;20045;-87
2023/06/23 07:34:33;;;;;;;1999.90;999.90;;;31.30;95.10;;;;;;5011425;28;20042;-89
2023/06/23 07:36:59;;;;;;;1999.90;999.90;;;31.00;95.50;;;;;;5010271;28;20088;-90
2023/06/23 07:39:25;;;;;;;1999.90;999.90;;;31.00;96.30;;;;;;5009809;28;20072;-89
2023/06/23 07:41:50;;;;;;;1999.90;999.90;;;31.20;96.10;;;;;;5010831;28;20174;-93
2023/06/23 07:44:16;;;;;;;1999.90;992.70;;;31.40;95.00;;;;;;4995410;28;20541;-91
2023/06/23 07:46:41;;;;;;;1999.90;999.90;;;31.80;95.40;;;;;;4995109;28;20046;-91
2023/06/23 07:49:07;;;;;;;1999.90;999.90;;;32.00;95.50;;;;;;5000738;28;20060;-91
2023/06/23 07:51:33;;;;;;;1999.90;911.97;;;31.90;96.50;;;;;;5019251;28;20144;-96
2023/06/23 07:53:58;;;;;;;1999.90;868.03;;;31.80;94.60;;;;;;5004382;28;20045;-91
2023/06/23 07:56:24;;;;;;;1999.90;761.55;;;31.80;94.50;;;;;;4995308;28;20512;-92
2023/06/23 07:58:50;;;;;;;1419.82;534.28;;;31.90;95.10;;;;;;5002373;28;20042;-96
2023/06/23 08:01:16;;;;;;;1652.82;479.10;;;32.20;93.40;;;;;;4996525;28;20077;-95
2023/06/23 08:03:48;;;;;;;1999.90;999.90;;;31.80;94.60;;;;;;5013491;28;20161;-94
2023/06/23 08:06:14;;;;;;;1999.90;999.90;;;31.80;92.40;;;;;;5013123;28;20073;-88
2023/06/23 08:08:46;;;;;;;1258.93;573.83;;;31.80;93.60;;;;;;5017566;28;20034;-95
2023/06/23 08:11:13;;;;;;;1999.90;999.90;;;31.70;93.90;;;;;;5001334;28;20045;-95
2023/06/23 08:13:38;;;;;;;1999.90;999.90;;;31.80;93.80;;;;;;4995079;28;20030;-96
2023/06/23 08:16:04;;;;;;;1999.90;999.90;;;31.90;93.60;;;;;;5014350;28;20072;-94
2023/06/23 08:18:30;;;;;;;1999.90;999.90;;;32.00;93.70;;;;;;4999047;28;20511;-92
2023/06/23 08:20:56;;;;;;;1999.90;999.90;;;32.00;93.00;;;;;;4998491;28;20037;-93
2023/06/23 08:23:21;;;;;;;1999.90;999.90;;;32.20;94.50;;;;;;5013719;28;20061;-94
2023/06/23 08:25:47;;;;;;;1999.90;999.90;;;32.10;91.40;;;;;;5013405;28;20034;-88
2023/06/23 08:28:13;;;;;;;1999.90;999.90;;;31.90;92.70;;;;;;4996576;28;20491;-90
2023/06/23 08:30:39;;;;;;;1999.90;999.90;;;31.90;90.30;;;;;;4996742;28;20038;-92
2023/06/23 08:33:04;;;;;;;1999.90;999.90;;;31.90;93.20;;;;;;5013679;28;20045;-92
2023/06/23 08:35:30;;;;;;;1999.90;999.90;;;31.90;90.70;;;;;;4998522;28;20044;-96
2023/06/23 08:37:56;;;;;;;1999.90;999.90;;;31.90;92.90;;;;;;5014213;28;20043;-92
2023/06/23 08:40:22;;;;;;;1999.90;999.90;;;31.60;91.80;;;;;;5014234;28;20033;-93
2023/06/23 08:42:48;;;;;;;1999.90;999.90;;;31.30;91.50;;;;;;5023448;28;20033;-92
2023/06/23 08:45:15;;;;;;;1999.90;999.90;;;31.10;91.50;;;;;;5006327;28;20044;-94
2023/06/23 08:47:48;;;;;;;1999.90;999.90;;;31.10;92.20;;;;;;4997022;28;20243;-90
2023/06/23 08:50:15;;;;;;;1999.90;999.90;;;31.00;92.00;;;;;;5013664;28;20037;-91
2023/06/23 08:52:42;;;;;;;1999.90;999.90;;;30.60;92.00;;;;;;4998121;28;20500;-94
2023/06/23 08:55:09;;;;;;;1999.90;999.90;;;30.20;92.60;;;;;;4998985;28;20560;-87
2023/06/23 08:57:37;;;;;;;1999.90;999.90;;;30.20;93.00;;;;;;5015360;28;20144;-92
2023/06/23 09:00:04;;;;;;;1999.90;999.90;;;30.10;93.20;;;;;;5018325;28;20108;-92
2023/06/23 09:02:30;;;;;;;1999.90;999.90;;;29.90;92.50;;;;;;5002148;28;20063;-85
2023/06/23 09:04:56;;;;;;;1999.90;999.90;;;29.70;93.00;;;;;;5012418;28;20427;-85
2023/06/23 09:07:21;;;;;;;1999.90;999.90;;;29.50;93.20;;;;;;5011879;28;20096;-87
2023/06/23 09:09:47;;;;;;;1999.90;999.90;;;29.20;93.50;;;;;;5013931;28;20041;-85
2023/06/23 09:12:20;;;;;;;1999.90;999.90;;;28.90;93.50;;;;;;4998909;28;20046;-86
2023/06/23 09:14:48;;;;;;;1999.90;999.90;;;28.80;93.40;;;;;;5027356;28;20054;-90
2023/06/23 09:17:15;;;;;;;1999.90;999.90;;;28.50;93.00;;;;;;4999194;28;20058;-86
2023/06/23 09:19:42;;;;;;;1999.90;999.90;;;28.50;93.00;;;;;;5015818;28;20097;-85
2023/06/23 09:22:09;;;;;;;1999.90;952.67;;;28.40;94.10;;;;;;5012443;28;20144;-84
2023/06/23 09:24:45;;;;;;;1999.90;999.90;;;28.50;95.00;;;;;;4996975;28;20332;-85
2023/06/23 09:27:11;;;;;;;1999.90;964.75;;;28.30;93.90;;;;;;5029142;28;20084;-86
2023/06/23 09:29:39;;;;;;;1999.90;999.90;;;28.20;94.90;;;;;;5030956;28;20033;-85
2023/06/23 09:32:07;;;;;;;1999.90;999.90;;;27.90;93.70;;;;;;5015138;28;20129;-87
2023/06/23 09:34:37;;;;;;;1999.90;999.90;;;27.90;94.40;;;;;;5014761;28;20040;-87
2023/06/23 09:37:11;;;;;;;1999.90;999.90;;;27.90;95.00;;;;;;5013852;28;20057;-86
2023/06/23 09:39:43;;;;;;;1999.90;999.90;;;27.80;94.50;;;;;;5016193;28;20053;-85
2023/06/23 09:42:13;;;;;;;1999.90;999.90;;;27.60;93.30;;;;;;5023662;28;20049;-85
2023/06/23 09:44:45;;;;;;;1999.90;999.90;;;27.60;93.80;;;;;;5017847;28;20060;-87
2023/06/23 09:47:14;;;;;;;1999.90;999.90;;;27.70;95.10;;;;;;4995712;28;20056;-84
2023/06/23 09:49:49;;;;;;;1999.90;999.90;;;27.90;93.20;;;;;;5013146;28;20491;-85
2023/06/23 09:52:25;;;;;;;1999.90;999.90;;;27.80;91.70;;;;;;5012986;28;20099;-83
2023/06/23 09:54:51;;;;;;;1999.90;999.90;;;27.90;93.10;;;;;;5011520;28;20033;-83
2023/06/23 09:57:19;;;;;;;1999.90;999.90;;;27.80;93.20;;;;;;4996886;28;20046;-84
2023/06/23 09:59:48;;;;;;;1999.90;999.90;;;27.80;93.10;;;;;;5028921;28;20526;-83
2023/06/23 10:02:28;;;;;;;1999.90;999.90;;;27.60;94.60;;;;;;5011433;28;20132;-83
2023/06/23 10:05:05;;;;;;;1999.90;999.90;;;27.70;93.50;;;;;;5010350;28;20037;-83
2023/06/23 10:07:34;;;;;;;1999.90;999.90;;;27.30;94.80;;;;;;5011130;28;20293;-83
2023/06/23 10:10:07;;;;;;;1999.90;999.90;;;27.70;95.40;;;;;;5031761;28;20033;-82
2023/06/23 10:12:33;;;;;;;1999.90;999.90;;;27.90;95.50;;;;;;5029662;28;20053;-88
2023/06/23 10:14:59;;;;;;;1999.90;999.90;;;27.90;94.10;;;;;;4997234;28;20096;-86
2023/06/23 10:17:25;;;;;;;1999.90;999.90;;;27.80;93.30;;;;;;4997755;28;20072;-85
2023/06/23 10:19:54;;;;;;;1999.90;999.90;;;27.90;94.40;;;;;;4997656;28;20037;-87
2023/06/23 10:22:21;;;;;;;1999.90;999.90;;;27.70;93.60;;;;;;5013893;28;20041;-84
2023/06/23 10:24:52;;;;;;;1999.90;999.90;;;27.80;94.20;;;;;;5013441;28;20484;-84
2023/06/23 10:27:26;;;;;;;1999.90;999.90;;;27.90;94.00;;;;;;5029837;28;20093;-83
2023/06/23 10:29:55;;;;;;;1999.90;999.90;;;27.80;93.90;;;;;;5029357;28;20038;-85
2023/06/23 10:32:28;;;;;;;1999.90;999.90;;;27.90;93.80;;;;;;4998449;28;20037;-88
2023/06/23 10:34:57;;;;;;;1999.90;999.90;;;27.70;93.20;;;;;;5018815;28;20093;-87
2023/06/23 10:37:25;;;;;;;1999.90;999.90;;;27.50;93.50;;;;;;5023875;28;20050;-86
2023/06/23 10:39:56;;;;;;;1999.90;999.90;;;27.70;94.30;;;;;;5016919;28;20067;-86
2023/06/23 10:42:23;;;;;;;1999.90;999.90;;;27.80;94.80;;;;;;5016942;28;20050;-85
2023/06/23 10:44:50;;;;;;;1999.90;999.90;;;27.90;95.20;;;;;;5033354;28;20037;-84
2023/06/23 10:47:16;;;;;;;1999.90;999.90;;;28.10;94.60;;;;;;4999343;28;20041;-85
2023/06/23 10:49:46;;;;;;;1999.90;999.90;;;28.20;94.90;;;;;;5033912;28;20071;-84
2023/06/23 10:52:14;;;;;;;1999.90;999.90;;;28.00;94.90;;;;;;5016667;28;20508;-88
2023/06/23 10:54:40;;;;;;;1999.90;999.90;;;28.10;94.80;;;;;;5003958;28;20060;-94
2023/06/23 10:57:13;;;;;;;1999.90;999.90;;;27.80;94.80;;;;;;5021403;28;20041;-96
2023/06/23 10:59:44;;;;;;;1999.90;999.90;;;27.50;94.40;;;;;;5021484;28;20041;-92
2023/06/23 11:02:13;;;;;;;1999.90;999.90;;;27.40;95.60;;;;;;5020612;28;20065;-91
2023/06/23 11:05:12;;;;;;;1999.90;999.90;;;27.70;95.10;;;;;;5003282;28;20510;-90
2023/06/23 11:08:01;;;;;;;1999.90;999.90;;;27.90;95.30;;;;;;5002956;28;20037;-93
2023/06/23 11:10:50;;;;;;;1999.90;999.90;;;28.00;94.90;;;;;;5001575;28;20107;-93
2023/06/23 11:13:16;;;;;;;1999.90;999.90;;;28.10;94.80;;;;;;5018469;28;20075;-89
2023/06/23 11:15:52;;;;;;;1999.90;999.90;;;28.00;95.10;;;;;;5001762;28;20045;-90
2023/06/23 11:18:22;;;;;;;1999.90;999.90;;;27.90;95.00;;;;;;5017764;28;20495;-89
2023/06/23 11:20:47;;;;;;;1999.90;999.90;;;27.80;95.80;;;;;;5001555;28;20464;-90
2023/06/23 11:23:14;;;;;;;1999.90;999.90;;;27.80;94.80;;;;;;5017233;28;20033;-91
2023/06/23 11:25:51;;;;;;;1999.90;999.90;;;27.60;95.20;;;;;;5003157;28;20400;-90
2023/06/23 11:28:38;;;;;;;1999.90;999.90;;;27.80;95.10;;;;;;5002660;28;20045;-92
2023/06/23 11:31:13;;;;;;;1999.90;999.90;;;27.90;95.30;;;;;;5017830;28;20099;-92
2023/06/23 11:34:00;;;;;;;1999.90;999.90;;;27.90;93.80;;;;;;5005096;28;20128;-92
2023/06/23 11:36:27;;;;;;;1999.90;999.90;;;27.90;93.10;;;;;;5003262;28;20104;-91
2023/06/23 11:38:55;;;;;;;1999.90;999.90;;;28.00;94.00;;;;;;5018665;28;20059;-89
2023/06/23 11:41:29;;;;;;;1999.90;999.90;;;27.90;93.60;;;;;;5004818;28;20041;-89
2023/06/23 11:44:00;;;;;;;1999.90;999.90;;;27.80;94.20;;;;;;5036814;28;20029;-90
2023/06/23 11:46:26;;;;;;;1999.90;999.90;;;27.80;94.20;;;;;;5037174;28;20053;-90
2023/06/23 11:48:53;;;;;;;1999.90;999.90;;;27.90;94.70;;;;;;5001424;28;20038;-89
2023/06/23 11:51:21;;;;;;;1999.90;999.90;;;27.70;94.70;;;;;;5003776;28;20037;-90
2023/06/23 11:53:49;;;;;;;1999.90;999.90;;;27.90;94.30;;;;;;5002514;28;20034;-88
2023/06/23 11:56:19;;;;;;;1999.90;999.90;;;27.90;94.10;;;;;;5020812;28;20093;-94
2023/06/23 11:58:50;;;;;;;1999.90;999.90;;;28.00;92.90;;;;;;5004276;28;20034;-95
2023/06/23 12:01:17;;;;;;;1999.90;999.90;;;28.00;94.00;;;;;;5019108;28;20088;-93
2023/06/23 12:03:51;;;;;;;1999.90;999.90;;;28.00;94.30;;;;;;5002785;28;20480;-91
2023/06/23 12:06:18;;;;;;;1999.90;999.90;;;27.90;93.70;;;;;;5002242;28;20041;-90
2023/06/23 12:08:48;;;;;;;1999.90;999.90;;;28.00;93.70;;;;;;5016972;28;20037;-95
2023/06/23 12:11:14;;;;;;;1999.90;999.90;;;27.70;94.40;;;;;;5002992;28;20052;-92
2023/06/23 12:13:40;;;;;;;1999.90;999.90;;;27.50;94.70;;;;;;5000397;28;20128;-91
2023/06/23 12:16:06;;;;;;;1999.90;999.90;;;27.50;95.40;;;;;;5001565;28;20375;-88
2023/06/23 12:18:32;;;;;;;1999.90;999.90;;;27.70;95.40;;;;;;5015769;28;20046;-89
2023/06/23 12:21:02;;;;;;;1999.90;999.90;;;27.70;95.00;;;;;;5000179;28;20036;-89
2023/06/23 12:23:31;;;;;;;1999.90;999.90;;;27.50;94.30;;;;;;5001678;28;20072;-88
2023/06/23 12:25:58;;;;;;;1999.90;999.90;;;27.40;95.20;;;;;;5013401;28;20084;-87
2023/06/23 12:28:28;;;;;;;1999.90;999.90;;;27.30;94.70;;;;;;5015273;28;20046;-89
2023/06/23 12:30:54;;;;;;;1999.90;999.90;;;27.30;94.60;;;;;;5000254;28;20446;-91
2023/06/23 12:33:25;;;;;;;1999.90;999.90;;;27.10;93.40;;;;;;5019735;28;20034;-90
2023/06/23 12:35:56;;;;;;;1999.90;999.90;;;27.20;91.80;;;;;;4999453;28;20041;-87
2023/06/23 12:38:25;;;;;;;1999.90;999.90;;;27.30;90.70;;;;;;4997868;28;20041;-88
2023/06/23 12:40:52;;;;;;;1999.90;999.90;;;27.40;90.80;;;;;;5033092;28;20052;-90
2023/06/23 12:43:19;;;;;;;1999.90;999.90;;;27.50;90.80;;;;;;5000909;28;20045;-89
2023/06/23 12:45:48;;;;;;;1999.90;999.90;;;27.40;90.20;;;;;;4999439;28;20651;-93
2023/06/23 12:48:14;;;;;;;1999.90;999.90;;;27.30;90.20;;;;;;4997662;28;20048;-92
2023/06/23 12:50:43;;;;;;;1999.90;999.90;;;27.50;91.30;;;;;;5000183;28;20046;-92
2023/06/23 12:53:09;;;;;;;1999.90;999.90;;;27.80;91.00;;;;;;5000069;28;20347;-90
2023/06/23 12:55:35;;;;;;;1999.90;999.90;;;27.70;90.40;;;;;;5017991;28;20048;-87
2023/06/23 12:58:01;;;;;;;1999.90;999.90;;;27.90;91.60;;;;;;5004123;28;20041;-92
2023/06/23 13:00:26;;;;;;;1999.90;955.60;;;27.90;90.60;;;;;;5004600;28;20049;-95
2023/06/23 13:02:55;;;;;;;1999.90;999.90;;;28.00;90.60;;;;;;5005339;28;20181;-94
2023/06/23 13:05:20;;;;;;;1999.90;999.90;;;27.90;90.00;;;;;;5002512;28;20037;-95
2023/06/23 13:07:46;;;;;;;1999.90;999.90;;;27.40;88.80;;;;;;5002233;28;20091;-96
2023/06/23 13:10:12;;;;;;;1999.90;999.90;;;27.20;89.90;;;;;;5014738;28;20500;-94
2023/06/23 13:12:38;;;;;;;1999.90;999.90;;;27.30;91.10;;;;;;5013926;28;20040;-91
2023/06/23 13:15:05;;;;;;;1999.90;999.90;;;27.30;90.60;;;;;;5012121;28;20045;-91
2023/06/23 13:17:31;;;;;;;1999.90;999.90;;;27.20;90.70;;;;;;4995612;28;20049;-92
2023/06/23 13:19:58;;;;;;;1999.90;999.90;;;27.10;91.10;;;;;;5012226;28;20047;-91
2023/06/23 13:22:23;;;;;;;1999.90;999.90;;;26.80;90.60;;;;;;5012604;28;20064;-93
2023/06/23 13:24:49;;;;;;;1999.90;999.90;;;26.90;91.10;;;;;;5013023;28;20041;-93
2023/06/23 13:27:15;;;;;;;1999.90;999.90;;;26.90;90.60;;;;;;5018272;28;20025;-95
2023/06/23 13:29:41;;;;;;;1999.90;999.90;;;27.10;91.10;;;;;;5004800;28;20098;-91
2023/06/23 13:32:08;;;;;;;1999.90;999.90;;;26.90;90.60;;;;;;4998113;28;20041;-91
2023/06/23 13:34:37;;;;;;;1999.90;999.90;;;27.00;91.30;;;;;;5013650;28;20227;-87
2023/06/23 13:37:03;;;;;;;1999.90;999.90;;;27.00;91.20;;;;;;5012103;28;20400;-83
2023/06/23 13:39:29;;;;;;;1999.90;999.90;;;26.90;91.60;;;;;;5028727;28;20045;-88
2023/06/23 13:41:55;;;;;;;1999.90;999.90;;;26.70;91.20;;;;;;4994873;28;20045;-90
2023/06/23 13:44:21;;;;;;;1999.90;999.90;;;26.80;91.40;;;;;;5011876;28;20404;-90
2023/06/23 13:46:50;;;;;;;1999.90;999.90;;;27.10;91.90;;;;;;5014509;28;20056;-92
2023/06/23 13:49:16;;;;;;;1999.90;999.90;;;27.10;91.50;;;;;;4994364;28;20042;-93
2023/06/23 13:51:42;;;;;;;1999.90;999.90;;;27.10;91.90;;;;;;5008688;28;20037;-89
2023/06/23 13:54:07;;;;;;;1999.90;999.90;;;27.10;92.10;;;;;;4997858;28;20092;-93
2023/06/23 13:56:33;;;;;;;1999.90;999.90;;;27.20;91.70;;;;;;5015458;28;20463;-96
2023/06/23 13:58:59;;;;;;;1999.90;999.90;;;27.10;91.50;;;;;;5019044;28;20049;-92
2023/06/23 14:01:26;;;;;;;1999.90;999.90;;;27.30;91.30;;;;;;4995498;28;20037;-94
2023/06/23 14:03:52;;;;;;;1999.90;999.90;;;27.30;91.60;;;;;;4994916;28;20073;-91
2023/06/23 14:06:18;;;;;;;1999.90;999.90;;;27.50;91.90;;;;;;5012337;28;20081;-88
2023/06/23 14:08:45;;;;;;;1999.90;999.90;;;27.80;90.70;;;;;;4994734;28;20041;-87
2023/06/23 14:11:11;;;;;;;1999.90;999.90;;;27.40;91.20;;;;;;5027568;28;20538;-88
2023/06/23 14:13:37;;;;;;;1999.90;999.90;;;27.30;91.40;;;;;;4994525;28;20411;-93
2023/06/23 14:16:08;;;;;;;1999.90;999.90;;;27.20;90.80;;;;;;5012735;28;20060;-91
2023/06/23 14:18:34;;;;;;;1999.90;999.90;;;27.10;90.50;;;;;;4999040;28;20046;-89
2023/06/23 14:21:00;;;;;;;1999.90;999.90;;;26.90;91.00;;;;;;4998677;28;20248;-89
2023/06/23 14:23:26;;;;;;;1999.90;999.90;;;27.20;91.60;;;;;;5017465;28;20536;-86
2023/06/23 14:25:53;;;;;;;1999.90;999.90;;;27.00;91.50;;;;;;5000540;28;20053;-88
2023/06/23 14:28:19;;;;;;;1999.90;999.90;;;27.00;91.70;;;;;;5016016;28;20034;-89
2023/06/23 14:30:45;;;;;;;1999.90;999.90;;;27.30;92.50;;;;;;4997525;28;20041;-89
2023/06/23 14:33:11;;;;;;;1999.90;999.90;;;27.70;91.70;;;;;;4997032;28;20086;-85
2023/06/23 14:35:36;;;;;;;1999.90;999.90;;;27.50;90.70;;;;;;5031751;28;20045;-89
2023/06/23 14:38:05;;;;;;;1999.90;999.90;;;27.40;90.90;;;;;;5013841;28;20041;-88
2023/06/23 14:40:34;;;;;;;1999.90;999.90;;;27.50;91.20;;;;;;4996256;28;20045;-87
2023/06/23 14:43:01;;;;;;;1999.90;999.90;;;27.80;90.10;;;;;;5013412;28;20134;-92
2023/06/23 14:45:38;;;;;;;1999.90;999.90;;;28.20;90.30;;;;;;5014141;28;20068;-91
2023/06/23 14:48:05;;;;;;;1999.90;999.90;;;28.20;90.30;;;;;;5013715;28;20121;-91
2023/06/23 14:50:30;;;;;;;1999.90;741.50;;;28.30;88.40;;;;;;4999978;28;20107;-93
2023/06/23 14:52:56;;;;;;;1999.90;999.90;;;28.20;90.00;;;;;;5014151;28;20073;-92
2023/06/23 14:55:23;;;;;;;1999.90;999.90;;;28.20;89.90;;;;;;4997948;28;20060;-91
2023/06/23 14:57:49;;;;;;;1999.90;839.22;;;27.70;87.80;;;;;;4998788;28;20045;-91
2023/06/23 15:00:15;;;;;;;1999.90;999.90;;;27.50;89.10;;;;;;5012879;28;20041;-90
2023/06/23 15:02:41;;;;;;;1999.90;999.90;;;27.80;90.30;;;;;;4997599;28;20052;-89
2023/06/23 15:05:07;;;;;;;1954.32;875.50;;;27.90;89.60;;;;;;4996545;28;20046;-90
2023/06/23 15:07:33;;;;;;;1999.90;999.90;;;27.90;90.00;;;;;;5013352;28;20041;-92
2023/06/23 15:09:58;;;;;;;1965.50;760.47;;;27.80;89.60;;;;;;5009781;28;20052;-91
2023/06/23 15:12:24;;;;;;;1999.90;720.47;;;27.70;90.20;;;;;;4997927;28;20041;-93
2023/06/23 15:14:50;;;;;;;1999.90;894.35;;;27.70;89.30;;;;;;4997397;28;20057;-91
2023/06/23 15:17:16;;;;;;;1999.90;884.75;;;27.50;90.00;;;;;;4997107;28;20110;-90
2023/06/23 15:19:41;;;;;;;1996.10;609.78;;;27.60;89.20;;;;;;5012834;28;20073;-93
2023/06/23 15:22:08;;;;;;;1999.90;999.90;;;27.50;90.00;;;;;;5012718;28;20037;-96
2023/06/23 15:24:35;;;;;;;1999.90;999.90;;;27.40;89.80;;;;;;5028699;28;20125;-93
2023/06/23 15:27:02;;;;;;;1800.05;746.38;;;27.70;89.70;;;;;;5005108;28;20507;-92
2023/06/23 15:29:28;;;;;;;1999.90;999.90;;;27.40;89.20;;;;;;5015414;28;20041;-89
2023/06/23 15:31:56;;;;;;;1999.90;956.25;;;27.20;88.60;;;;;;5013972;28;20037;-93
2023/06/23 15:34:24;;;;;;;1999.90;992.72;;;27.30;89.10;;;;;;4985132;28;20030;-94
2023/06/23 15:36:54;;;;;;;1999.90;999.90;;;27.10;90.00;;;;;;4994040;28;20042;-93
2023/06/23 15:39:20;;;;;;;1999.90;999.90;;;26.90;89.50;;;;;;5009786;28;20401;-90
2023/06/23 15:41:49;;;;;;;1999.90;999.90;;;26.80;89.50;;;;;;4996782;28;20120;-92
2023/06/23 15:44:14;;;;;;;1999.90;999.90;;;26.70;89.30;;;;;;5013270;28;20491;-89
2023/06/23 15:46:40;;;;;;;1999.90;999.90;;;27.00;88.80;;;;;;5012975;28;20041;-92
2023/06/23 15:49:06;;;;;;;1999.90;999.90;;;27.00;87.70;;;;;;4993165;28;20041;-88
2023/06/23 15:51:31;;;;;;;1999.90;999.90;;;26.90;89.30;;;;;;5003752;28;20033;-91
2023/06/23 15:53:57;;;;;;;1999.90;999.90;;;26.80;88.50;;;;;;5016809;28;20095;-90
2023/06/23 15:56:23;;;;;;;1999.90;999.90;;;26.50;89.50;;;;;;5013068;28;20045;-90
2023/06/23 15:58:49;;;;;;;1999.90;999.90;;;26.40;90.00;;;;;;5011852;28;20435;-90
2023/06/23 16:01:15;;;;;;;1999.90;999.90;;;26.40;90.00;;;;;;5011614;28;20029;-93
2023/06/23 16:03:40;;;;;;;1999.90;999.90;;;26.50;90.10;;;;;;4996245;28;20048;-95
2023/06/23 16:06:06;;;;;;;1999.90;999.90;;;26.60;90.20;;;;;;4995496;28;20041;-92
2023/06/23 16:08:33;;;;;;;1999.90;999.90;;;26.60;90.00;;;;;;5011848;28;20521;-86
2023/06/23 16:10:59;;;;;;;1999.90;999.90;;;26.60;90.10;;;;;;5011991;28;20048;-91
2023/06/23 16:13:27;;;;;;;1999.90;999.90;;;26.60;90.20;;;;;;5012166;28;20037;-82
2023/06/23 16:15:52;;;;;;;1999.90;999.90;;;26.60;90.20;;;;;;5027342;28;20050;-85
2023/06/23 16:18:18;;;;;;;1999.90;999.90;;;26.40;89.60;;;;;;5018221;28;20046;-86
2023/06/23 16:20:44;;;;;;;1999.90;999.90;;;26.20;89.70;;;;;;5013624;28;20044;-87
2023/06/23 16:23:10;;;;;;;1999.90;999.90;;;26.00;90.20;;;;;;5010746;28;20090;-85